Latest Weather Observations for Territory Grape Farm

IDD60801

Issued at 8:31 am CST Wednesday 22 February 2017 (issued every 30 minutes, with the page automatically refreshed every 10 minutes)

About weather observations | Map of weather stations | Latest weather observations for NT | Other Formats
Station Details ID: 015643 Name: TERRITORY GRAPE FARM Lat: -22.45 Lon: 133.64 Height: 565.6 m
Data from the previous 72 hours. | See also: Recent months at Territory Grape Farm
Date/Time
CST
Temp
°C
App
Temp
°C
Dew
Point
°C
Rel
Hum
%
Delta-T
°C
Wind Press
QNH
hPa
Press
MSL
hPa
Rain since
9am
mm
Dir  Spd
km/h
Gust
km/h
Spd
kts
Gust
kts
22/08:30am 26.9 24.8 5.8 26 11.2 SE 6 7 3 4 1015.5 1011.2 -
22/08:00am 22.5 21.4 8.6 41 7.6 SE 4 4 2 2 1015.4 1011.1 -
22/07:30am 18.6 17.3 9.1 54 5.1 S 6 9 3 5 1015.3 1011.0 -
22/07:00am 14.4 12.7 8.4 67 3.1 SE 7 9 4 5 1015.1 1010.7 -
22/06:30am 14.5 12.7 7.8 64 3.4 SSE 7 9 4 5 1014.9 1010.5 -
22/06:00am 13.3 11.5 7.3 67 3.0 S 6 7 3 4 1014.8 1010.4 -
22/05:30am 14.5 12.7 8.0 65 3.3 SSE 7 9 4 5 1014.4 1010.0 -
22/05:00am 13.3 11.9 7.1 66 3.1 SSE 4 4 2 2 1014.0 1009.7 -
22/04:30am 15.8 14.0 7.3 57 4.3 S 6 9 3 5 1013.6 1009.3 -
22/04:00am 15.3 13.5 7.8 61 3.9 S 7 9 4 5 1013.6 1009.3 -
22/03:30am 15.9 13.8 8.2 60 4.0 S 9 11 5 6 1013.5 1009.1 -
22/03:00am 16.0 14.3 8.5 61 3.9 S 7 9 4 5 1013.5 1009.1 -
22/02:30am 15.6 14.2 8.8 64 3.6 S 6 7 3 4 1013.6 1009.3 -
22/02:00am 16.0 14.6 8.7 62 3.8 S 6 7 3 4 1013.7 1009.4 -
22/01:30am 17.4 15.5 9.1 58 4.4 S 9 11 5 6 1014.0 1009.7 -
22/01:00am 17.8 16.2 8.6 55 4.9 SSW 7 9 4 5 1014.2 1009.9 -
22/12:30am 17.4 16.3 9.8 61 4.1 SSW 6 6 3 3 1014.4 1010.0 -
22/12:00am 17.3 17.6 10.9 66 3.5 CALM 0 0 0 0 1014.6 1010.2 -
 
Date/Time
CST
Temp
°C
App
Temp
°C
Dew
Point
°C
Rel
Hum
%
Delta-T
°C
Wind Press
QNH
hPa
Press
MSL
hPa
Rain since
9am
mm
Dir  Spd
km/h
Gust
km/h
Spd
kts
Gust
kts
21/11:30pm 17.4 17.5 10.3 63 3.9 CALM 0 0 0 0 1014.8 1010.4 -
21/11:00pm 18.0 18.2 10.4 61 4.2 CALM 0 2 0 1 1014.8 1010.4 -
21/10:30pm 19.9 18.6 9.2 50 5.8 WNW 6 6 3 3 1014.8 1010.4 -
21/10:00pm 20.2 19.5 10.0 52 5.6 WNW 4 6 2 3 1014.7 1010.3 -
21/09:30pm 21.0 20.3 8.6 45 6.7 NNW 2 6 1 3 1014.5 1010.1 -
21/09:00pm 22.4 20.4 7.0 37 8.2 NNE 7 7 4 4 1014.1 1009.8 -
21/08:30pm 23.5 21.7 8.0 37 8.4 NNE 7 7 4 4 1013.9 1009.6 -
21/08:00pm 25.5 23.2 5.7 28 10.4 NNE 7 9 4 5 1013.6 1009.3 -
21/07:30pm 26.7 24.2 4.5 24 11.5 NE 7 9 4 5 1013.3 1008.9 -
21/07:00pm 30.4 29.3 4.9 20 13.6 CALM 0 0 0 0 1013.0 1008.6 -
21/06:30pm 31.6 29.6 4.4 18 14.5 E 4 6 2 3 1012.6 1008.2 -
21/06:00pm 32.9 30.0 -1.4 11 16.8 ENE 4 7 2 4 1012.3 1008.0 -
21/05:30pm 33.1 29.8 -0.1 12 16.6 SE 7 13 4 7 1012.3 1008.0 -
21/05:00pm 33.5 29.6 1.3 13 16.5 ESE 11 17 6 9 1012.2 1007.9 -
21/04:30pm 33.2 30.1 -2.5 10 17.2 NNE 4 11 2 6 1012.3 1008.0 -
21/04:00pm 33.5 30.2 0.2 12 16.8 S 7 15 4 8 1012.7 1008.3 -
21/03:30pm 33.1 29.8 -1.3 11 16.9 E 6 17 3 9 1012.9 1008.5 -
21/03:00pm 32.8 28.5 -1.5 11 16.7 SSE 11 19 6 10 1013.2 1008.8 -
21/02:30pm 33.0 29.7 -0.2 12 16.6 W 7 13 4 7 1013.4 1009.0 -
21/02:00pm 32.0 28.6 -0.9 12 16.1 NNE 7 15 4 8 1014.0 1009.7 -
21/01:30pm 31.8 28.6 1.0 14 15.5 E 7 17 4 9 1014.7 1010.3 -
21/01:00pm 31.3 27.7 0.6 14 15.3 ESE 9 17 5 9 1015.2 1010.8 -
21/12:30pm 31.6 28.6 1.8 15 15.2 ENE 7 15 4 8 1015.7 1011.4 -
21/12:00pm 30.7 27.4 0.2 14 15.1 E 7 15 4 8 1016.4 1012.0 -
21/11:30am 30.3 26.7 0.8 15 14.7 ENE 9 15 5 8 1016.7 1012.3 -
21/11:00am 30.2 26.4 1.6 16 14.4 E 11 17 6 9 1017.1 1012.8 -
21/10:30am 28.3 23.6 0.9 17 13.5 E 15 22 8 12 1017.5 1013.2 -
21/10:00am 28.0 23.4 1.5 18 13.2 E 15 24 8 13 1017.6 1013.3 -
21/09:30am 27.1 21.7 1.5 19 12.6 ESE 19 26 10 14 1017.6 1013.3 -
21/09:00am 25.7 20.3 1.1 20 11.9 ESE 19 24 10 13 1017.6 1013.3 -
21/08:30am 24.1 18.7 1.1 22 11.0 ESE 19 26 10 14 1017.4 1013.1 -
21/08:00am 21.9 19.2 3.6 30 9.1 ESE 7 13 4 7 1017.2 1012.9 -
21/07:30am 17.2 14.7 3.8 41 6.4 SSE 6 7 3 4 1017.1 1012.8 -
21/07:00am 14.4 11.6 3.2 47 5.2 SSE 7 9 4 5 1016.7 1012.3 -
21/06:30am 13.6 10.4 3.1 49 4.8 SSE 9 11 5 6 1016.3 1011.9 -
21/06:00am 13.9 10.7 3.1 48 5.0 SSE 9 11 5 6 1015.6 1011.3 -
21/05:30am 13.7 10.6 3.5 50 4.7 SSE 9 11 5 6 1015.2 1010.8 -
21/05:00am 12.5 9.4 3.5 54 4.1 SSE 9 11 5 6 1015.0 1010.6 -
21/04:30am 14.4 11.2 3.2 47 5.2 SSE 9 13 5 7 1014.9 1010.5 -
21/04:00am 14.2 10.8 3.9 50 4.9 SSE 11 13 6 7 1014.6 1010.2 -
21/03:30am 13.3 10.4 4.5 55 4.2 SSE 9 11 5 6 1014.8 1010.4 -
21/03:00am 12.9 9.6 4.3 56 4.0 SE 11 11 6 6 1014.8 1010.4 -
21/02:30am 13.3 10.3 3.9 53 4.4 SE 9 11 5 6 1014.9 1010.5 -
21/02:00am 15.1 11.7 4.2 48 5.2 SSE 11 13 6 7 1014.9 1010.5 -
21/01:30am 15.2 12.3 4.6 49 5.1 SSE 9 13 5 7 1015.1 1010.7 -
21/01:00am 16.5 13.2 4.5 45 5.8 SSE 11 13 6 7 1015.0 1010.6 -
21/12:30am 16.2 13.5 5.8 50 5.2 SE 9 11 5 6 1015.0 1010.6 -
21/12:00am 16.3 13.3 5.9 50 5.2 SE 11 13 6 7 1015.2 1010.8 -
 
Date/Time
CST
Temp
°C
App
Temp
°C
Dew
Point
°C
Rel
Hum
%
Delta-T
°C
Wind Press
QNH
hPa
Press
MSL
hPa
Rain since
9am
mm
Dir  Spd
km/h
Gust
km/h
Spd
kts
Gust
kts
20/11:30pm 15.3 12.8 6.6 56 4.4 ESE 9 9 5 5 1015.2 1010.8 -
20/11:00pm 16.2 13.3 6.6 53 4.9 ESE 11 11 6 6 1015.3 1011.0 -
20/10:30pm 16.6 14.2 7.0 53 4.9 ESE 9 9 5 5 1015.3 1011.0 -
20/10:00pm 17.3 14.4 6.5 49 5.5 ESE 11 13 6 7 1015.3 1011.0 -
20/09:30pm 18.3 15.4 6.5 46 6.0 ESE 11 11 6 6 1015.2 1010.8 -
20/09:00pm 19.6 16.1 5.6 40 7.1 ESE 13 15 7 8 1015.0 1010.6 -
20/08:30pm 21.2 17.7 5.6 36 8.0 SE 13 15 7 8 1014.7 1010.3 -
20/08:00pm 22.0 18.3 4.6 32 8.8 ESE 13 15 7 8 1014.2 1009.9 -
20/07:30pm 23.1 20.6 4.6 30 9.4 E 7 9 4 5 1013.8 1009.5 -
20/07:00pm 26.6 22.8 1.8 20 12.3 ESE 11 15 6 8 1013.5 1009.1 -
20/06:30pm 28.9 24.7 1.4 17 13.7 ESE 13 22 7 12 1013.1 1008.7 -
20/06:00pm 30.1 26.1 0.6 15 14.6 SE 11 19 6 10 1012.7 1008.3 -
20/05:30pm 30.6 25.8 0.1 14 15.1 SE 15 22 8 12 1012.3 1008.0 -
20/05:00pm 30.9 26.1 0.3 14 15.2 SE 15 26 8 14 1012.3 1008.0 -
20/04:30pm 30.7 25.9 0.2 14 15.1 ESE 15 24 8 13 1012.3 1008.0 -
20/04:00pm 30.5 25.8 1.0 15 14.8 ESE 15 28 8 15 1012.6 1008.2 -
20/03:30pm 30.9 26.4 2.2 16 14.7 ESE 15 24 8 13 1012.8 1008.4 -
20/03:00pm 30.1 25.1 1.5 16 14.4 E 17 26 9 14 1013.1 1008.7 -
20/02:30pm 29.3 25.0 0.9 16 14.1 SE 13 26 7 14 1013.6 1009.3 -
20/02:00pm 29.7 25.2 2.1 17 14.0 E 15 24 8 13 1013.8 1009.5 -
20/01:30pm 28.6 24.3 1.2 17 13.6 ESE 13 30 7 16 1014.5 1010.1 -
20/01:00pm 27.6 22.9 1.2 18 13.0 SE 15 26 8 14 1014.9 1010.5 -
20/12:30pm 26.8 22.2 1.3 19 12.5 SSE 15 28 8 15 1015.3 1011.0 -
20/12:00pm 27.3 22.5 2.4 20 12.5 ESE 17 26 9 14 1015.9 1011.6 -
20/11:30am 25.7 20.9 2.4 22 11.6 SE 17 28 9 15 1016.3 1011.9 -
20/11:00am 25.4 20.2 2.2 22 11.5 ESE 19 30 10 16 1016.8 1012.4 -
20/10:30am 24.5 19.2 2.0 23 11.0 ESE 19 28 10 15 1016.9 1012.6 -
20/10:00am 24.3 19.2 3.0 25 10.6 SE 19 30 10 16 1017.2 1012.9 -
20/09:30am 22.8 17.0 2.3 26 10.0 SE 22 30 12 16 1017.4 1013.1 -
20/09:00am 22.0 16.0 3.2 29 9.2 SE 24 30 13 16 1017.4 1013.1 -
20/08:30am 21.0 14.9 2.8 30 8.8 ESE 24 32 13 17 1017.1 1012.8 -
20/08:00am 18.6 14.2 2.9 35 7.5 SE 15 22 8 12 1016.9 1012.6 -
20/07:30am 15.2 12.9 4.9 50 5.0 SE 6 7 3 4 1016.6 1012.2 -
20/07:00am 13.3 10.3 4.2 54 4.3 SSE 9 11 5 6 1016.3 1011.9 -
20/06:30am 12.6 9.7 4.6 58 3.8 SE 9 11 5 6 1016.1 1011.8 -
20/06:00am 11.2 8.6 4.4 63 3.2 SE 7 9 4 5 1015.7 1011.4 -
20/05:30am 14.5 11.1 3.9 49 5.0 S 11 15 6 8 1015.4 1011.1 -
20/05:00am 14.3 11.3 4.0 50 4.9 S 9 13 5 7 1015.3 1011.0 -
20/04:30am 13.9 11.0 4.8 54 4.4 S 9 13 5 7 1015.1 1010.7 -
20/04:00am 14.4 11.6 5.2 54 4.5 SSE 9 11 5 6 1015.0 1010.6 -
20/03:30am 13.3 9.9 5.9 61 3.6 SE 13 13 7 7 1014.9 1010.5 -
20/03:00am 13.2 10.2 6.1 62 3.5 SE 11 13 6 7 1014.9 1010.5 -
20/02:30am 14.5 11.9 6.1 57 4.2 SE 9 11 5 6 1014.9 1010.5 -
20/02:00am 14.9 12.7 6.0 55 4.4 SSE 7 9 4 5 1015.0 1010.6 -
20/01:30am 15.8 13.4 5.4 50 5.1 SSE 7 11 4 6 1014.9 1010.5 -
20/01:00am 16.8 14.1 5.4 47 5.6 SSE 9 11 5 6 1015.2 1010.8 -
20/12:30am 18.1 14.9 5.3 43 6.4 SSE 11 13 6 7 1015.3 1011.0 -
20/12:00am 16.5 13.9 6.1 50 5.2 SE 9 9 5 5 1015.6 1011.3 -
 
Date/Time
CST
Temp
°C
App
Temp
°C
Dew
Point
°C
Rel
Hum
%
Delta-T
°C
Wind Press
QNH
hPa
Press
MSL
hPa
Rain since
9am
mm
Dir  Spd
km/h
Gust
km/h
Spd
kts
Gust
kts
19/11:30pm 18.0 15.4 6.2 46 6.0 SSE 9 11 5 6 1015.7 1011.4 -
19/11:00pm 19.3 16.3 6.1 42 6.7 SE 11 11 6 6 1015.7 1011.4 -
19/10:30pm 20.0 16.5 5.6 39 7.3 SE 13 15 7 8 1015.5 1011.2 -
19/10:00pm 20.4 17.0 6.0 39 7.4 SE 13 15 7 8 1015.3 1011.0 -
19/09:30pm 20.9 17.5 6.1 38 7.6 SE 13 15 7 8 1015.2 1010.8 -
19/09:00pm 21.0 18.1 6.5 39 7.5 SE 11 15 6 8 1014.9 1010.5 -
19/08:30pm 21.3 18.2 7.2 40 7.4 SE 13 15 7 8 1014.6 1010.2 -
19/08:00pm 21.2 18.4 7.1 40 7.4 ESE 11 13 6 7 1014.1 1009.8 -
19/07:30pm 23.3 20.2 5.7 32 9.2 SE 11 13 6 7 1013.8 1009.5 -
19/07:00pm 26.9 23.6 4.6 24 11.6 SE 11 17 6 9 1013.3 1008.9 -
19/06:30pm 28.9 24.8 4.4 21 12.9 SE 15 20 8 11 1012.9 1008.5 -
19/06:00pm 29.9 25.7 3.8 19 13.7 ESE 15 22 8 12 1012.7 1008.3 -
19/05:30pm 30.4 26.3 4.2 19 13.8 ESE 15 24 8 13 1012.3 1008.0 -
19/05:00pm 30.7 25.7 4.4 19 14.0 ESE 20 28 11 15 1012.2 1007.9 -
19/04:30pm 30.7 25.9 4.4 19 14.0 SE 19 30 10 16 1012.2 1007.9 -
19/04:00pm 31.3 26.5 5.7 20 13.9 ESE 20 30 11 16 1012.1 1007.8 -
19/03:30pm 31.1 27.6 5.5 20 13.9 ESE 13 24 7 13 1012.3 1008.0 -
19/03:00pm 31.6 27.2 6.6 21 13.8 ESE 19 30 10 16 1012.6 1008.2 -
19/02:30pm 30.9 26.6 5.3 20 13.8 SE 17 30 9 16 1012.9 1008.5 -
19/02:00pm 30.4 27.1 6.3 22 13.2 SSE 13 24 7 13 1013.2 1008.8 -
19/01:30pm 30.0 25.0 6.6 23 12.8 SE 22 33 12 18 1013.7 1009.4 -
19/01:00pm 29.6 25.1 6.9 24 12.5 SE 20 32 11 17 1014.4 1010.0 -
19/12:30pm 28.8 24.1 6.2 24 12.2 SSE 20 37 11 20 1014.9 1010.5 -
19/12:00pm 28.0 23.4 6.7 26 11.6 SE 20 35 11 19 1015.5 1011.2 -
19/11:30am 27.4 22.9 6.8 27 11.2 SE 20 30 11 16 1016.0 1011.7 -
19/11:00am 26.7 21.4 6.7 28 10.8 ESE 24 32 13 17 1016.4 1012.0 -
19/10:30am 26.0 20.5 6.1 28 10.6 SE 24 37 13 20 1016.8 1012.4 -
19/10:00am 25.1 18.8 5.8 29 10.2 SE 28 37 15 20 1016.8 1012.4 -
19/09:30am 24.5 17.8 5.8 30 9.8 SE 30 39 16 21 1016.9 1012.6 -
19/09:00am 24.2 18.0 6.0 31 9.6 SE 28 43 15 23 1016.8 1012.4 -

Other Formats:

Comma delimited format used in spreadsheet applications
http://www.bom.gov.au/fwo/IDD60801/IDD60801.94328.axf

JavaScript Object Notation format (JSON) in row-major order
http://www.bom.gov.au/fwo/IDD60801/IDD60801.94328.json